createdAt,value
2023-03-27T00:01:02.566Z,16.16
2023-03-27T00:06:17.257Z,15.92
2023-03-27T00:11:25.859Z,15.69
2023-03-27T00:16:28.108Z,15.69
2023-03-27T00:21:30.241Z,15.82
2023-03-27T00:26:32.388Z,15.81
2023-03-27T00:31:34.621Z,16.00
2023-03-27T00:36:36.694Z,15.26
2023-03-27T00:41:38.874Z,15.55
2023-03-27T00:46:44.341Z,15.56
2023-03-27T00:51:48.143Z,15.25
2023-03-27T00:56:51.731Z,15.29
2023-03-27T01:01:54.098Z,15.14
2023-03-27T01:06:57.042Z,15.35
2023-03-27T01:12:11.975Z,15.14
2023-03-27T01:17:41.223Z,15.22
2023-03-27T01:23:08.648Z,15.33
2023-03-27T01:28:55.142Z,14.87
2023-03-27T01:34:03.199Z,14.77
2023-03-27T01:39:27.327Z,14.65
2023-03-27T01:44:43.415Z,14.54
2023-03-27T01:50:01.939Z,14.87
2023-03-27T01:55:10.073Z,14.83
2023-03-27T02:00:19.632Z,14.82
2023-03-27T02:05:37.639Z,14.92
2023-03-27T02:10:43.648Z,14.85
2023-03-27T02:15:50.105Z,14.65
2023-03-27T02:20:52.280Z,14.68
2023-03-27T02:25:55.521Z,14.76
2023-03-27T02:31:33.794Z,14.78
2023-03-27T02:37:04.138Z,14.11
2023-03-27T02:42:23.807Z,13.45
2023-03-27T02:47:33.888Z,13.57
2023-03-27T02:52:44.697Z,13.83
2023-03-27T02:57:52.416Z,13.91
2023-03-27T03:03:05.958Z,13.90
2023-03-27T03:08:10.591Z,13.78
2023-03-27T03:13:12.926Z,13.87
2023-03-27T03:18:15.126Z,13.73
2023-03-27T03:23:17.251Z,13.65
2023-03-27T03:28:19.929Z,13.60
2023-03-27T03:33:22.364Z,13.44
2023-03-27T03:38:27.568Z,13.60
2023-03-27T03:43:32.337Z,13.69
2023-03-27T03:48:34.447Z,13.51
2023-03-27T03:53:36.842Z,13.50
2023-03-27T03:58:39.149Z,13.38
2023-03-27T04:03:41.870Z,13.80
2023-03-27T04:08:45.408Z,13.52
2023-03-27T04:13:48.407Z,13.48
2023-03-27T04:18:54.648Z,13.35
2023-03-27T04:24:02.880Z,13.39
2023-03-27T04:29:10.625Z,13.72
2023-03-27T04:34:12.741Z,13.74
2023-03-27T04:39:16.758Z,13.74
2023-03-27T04:44:19.087Z,13.83
2023-03-27T04:49:21.231Z,13.89
2023-03-27T04:54:24.360Z,13.83
2023-03-27T04:59:26.472Z,13.99
2023-03-27T05:04:29.353Z,14.10
2023-03-27T05:09:31.534Z,14.23
2023-03-27T05:14:33.578Z,14.14
2023-03-27T05:19:35.805Z,14.24
2023-03-27T05:24:38.350Z,13.99
2023-03-27T05:29:47.097Z,14.06
2023-03-27T05:34:54.894Z,12.98
2023-03-27T05:39:57.179Z,13.31
2023-03-27T05:44:59.374Z,13.79
2023-03-27T05:50:01.923Z,13.90
2023-03-27T05:55:05.269Z,14.36
2023-03-27T06:00:12.049Z,14.51
2023-03-27T06:05:14.672Z,14.57
2023-03-27T06:10:20.601Z,14.76
2023-03-27T06:15:22.738Z,14.94
2023-03-27T06:20:25.526Z,15.38
2023-03-27T06:25:32.375Z,15.45
2023-03-27T06:30:35.363Z,15.60
2023-03-27T06:35:37.723Z,15.91
2023-03-27T06:40:39.934Z,15.90
2023-03-27T06:45:45.639Z,16.09
2023-03-27T06:50:50.124Z,16.44
2023-03-27T06:55:52.428Z,16.26
2023-03-27T07:00:54.547Z,16.74
2023-03-27T07:05:57.218Z,17.00
2023-03-27T07:11:11.791Z,16.96
2023-03-27T07:16:14.589Z,17.18
2023-03-27T07:21:16.882Z,17.49
2023-03-27T07:26:19.082Z,17.73
2023-03-27T07:31:36.527Z,17.90
2023-03-27T07:36:45.184Z,18.07
2023-03-27T07:41:47.307Z,18.26
2023-03-27T07:46:52.399Z,18.32
2023-03-27T07:51:54.592Z,18.55
2023-03-27T07:56:57.547Z,18.76
2023-03-27T08:01:59.822Z,19.05
2023-03-27T08:07:02.529Z,19.11
2023-03-27T08:12:07.082Z,19.09
2023-03-27T08:17:16.342Z,19.17
2023-03-27T08:22:21.361Z,19.37
2023-03-27T08:27:24.011Z,19.77
2023-03-27T08:32:26.805Z,19.84
2023-03-27T08:37:29.218Z,20.13
2023-03-27T08:42:37.433Z,20.25
2023-03-27T08:47:44.817Z,20.48
2023-03-27T08:52:47.952Z,20.74
2023-03-27T08:57:52.090Z,20.42
2023-03-27T09:03:01.817Z,20.53
2023-03-27T09:08:20.457Z,20.59
2023-03-27T09:13:38.546Z,20.77
2023-03-27T09:18:56.467Z,20.50
2023-03-27T09:24:01.643Z,20.99
2023-03-27T09:29:19.875Z,21.17
2023-03-27T09:34:28.101Z,21.49
2023-03-27T09:39:34.351Z,21.68
2023-03-27T09:44:41.841Z,21.84
2023-03-27T09:49:53.486Z,22.23
2023-03-27T09:54:56.501Z,22.27
2023-03-27T10:00:02.978Z,22.66
2023-03-27T10:05:16.118Z,22.73
2023-03-27T10:10:20.549Z,22.73
2023-03-27T10:15:36.682Z,22.61
2023-03-27T10:20:49.436Z,22.85
2023-03-27T10:25:52.885Z,23.12
2023-03-27T10:31:01.119Z,23.27
2023-03-27T10:36:08.840Z,23.34
2023-03-27T10:41:28.005Z,23.48
2023-03-27T10:46:40.425Z,23.40
2023-03-27T10:52:00.785Z,23.24
2023-03-27T10:57:10.234Z,23.39
2023-03-27T11:02:25.939Z,24.00
2023-03-27T11:07:38.117Z,23.56
2023-03-27T11:12:43.129Z,23.51
2023-03-27T11:18:01.243Z,23.57
2023-03-27T11:23:10.801Z,23.24
2023-03-27T11:28:31.402Z,23.25
2023-03-27T11:33:52.451Z,23.01
2023-03-27T11:39:17.154Z,23.05
2023-03-27T11:44:19.676Z,22.76
2023-03-27T11:49:47.568Z,22.82
2023-03-27T11:55:11.122Z,22.60
2023-03-27T12:00:16.721Z,22.30
2023-03-27T12:05:34.330Z,22.45
2023-03-27T12:10:42.862Z,22.58
2023-03-27T12:16:06.791Z,22.70
2023-03-27T12:21:24.326Z,22.80
2023-03-27T12:26:47.062Z,22.88
2023-03-27T12:32:16.922Z,22.09
2023-03-27T12:37:25.290Z,22.06
2023-03-27T12:42:48.394Z,22.35
2023-03-27T12:48:11.819Z,22.54
2023-03-27T12:53:37.459Z,22.28
2023-03-27T12:58:41.474Z,22.24
2023-03-27T13:03:44.066Z,22.39
2023-03-27T13:08:58.138Z,22.16
2023-03-27T13:14:32.846Z,22.49
2023-03-27T13:19:50.064Z,22.62
2023-03-27T13:25:16.407Z,22.59
2023-03-27T13:30:41.630Z,22.41
2023-03-27T13:35:59.441Z,22.66
2023-03-27T13:41:38.596Z,22.16
2023-03-27T13:46:48.223Z,22.11
2023-03-27T13:52:17.672Z,22.07
2023-03-27T13:57:47.302Z,22.15
2023-03-27T14:03:14.967Z,22.15
2023-03-27T14:08:29.445Z,21.79
2023-03-27T14:13:39.713Z,21.81
2023-03-27T14:19:21.589Z,22.51
2023-03-27T14:24:46.147Z,22.81
2023-03-27T14:29:52.313Z,21.90
2023-03-27T14:34:54.826Z,22.76
2023-03-27T14:39:59.242Z,23.32
2023-03-27T14:45:24.953Z,23.44
2023-03-27T14:50:28.599Z,23.37
2023-03-27T14:55:34.804Z,22.45
2023-03-27T15:00:41.675Z,21.41
2023-03-27T15:06:02.208Z,21.39
2023-03-27T15:11:11.345Z,23.17
2023-03-27T15:16:21.746Z,22.87
2023-03-27T15:21:39.497Z,22.71
2023-03-27T15:26:41.937Z,23.10
2023-03-27T15:31:48.092Z,23.37
2023-03-27T15:36:57.568Z,24.08
2023-03-27T15:42:12.947Z,25.54
2023-03-27T15:47:30.464Z,25.36
2023-03-27T15:52:34.524Z,23.99
2023-03-27T15:57:37.054Z,24.02
2023-03-27T16:02:40.817Z,24.39
2023-03-27T16:07:48.996Z,23.64
2023-03-27T16:12:57.611Z,21.82
2023-03-27T16:18:04.634Z,22.11
2023-03-27T16:23:06.873Z,22.74
2023-03-27T16:28:10.275Z,21.01
2023-03-27T16:33:17.892Z,20.77
2023-03-27T16:38:20.397Z,20.30
2023-03-27T16:43:22.509Z,19.57
2023-03-27T16:48:24.641Z,19.66
2023-03-27T16:53:26.850Z,19.89
2023-03-27T16:58:28.964Z,19.86
2023-03-27T17:03:31.372Z,19.54
2023-03-27T17:08:34.242Z,19.56
2023-03-27T17:13:37.249Z,19.65
2023-03-27T17:18:41.352Z,18.67
2023-03-27T17:23:43.920Z,18.74
2023-03-27T17:28:48.731Z,18.83
2023-03-27T17:33:50.936Z,19.00
2023-03-27T17:38:53.526Z,19.06
2023-03-27T17:43:55.609Z,18.93
2023-03-27T17:48:58.345Z,18.43
2023-03-27T17:54:00.520Z,18.19
2023-03-27T17:59:02.772Z,18.10
2023-03-27T18:04:05.037Z,18.45
2023-03-27T18:09:07.759Z,18.24
2023-03-27T18:14:10.118Z,18.30
2023-03-27T18:19:13.151Z,17.69
2023-03-27T18:24:15.850Z,17.53
2023-03-27T18:29:18.006Z,17.33
2023-03-27T18:34:20.311Z,16.98
2023-03-27T18:39:22.590Z,16.57
2023-03-27T18:44:24.861Z,16.97
2023-03-27T18:49:27.077Z,16.32
2023-03-27T18:54:29.197Z,16.16
2023-03-27T18:59:31.506Z,16.30
2023-03-27T19:04:33.603Z,16.45
2023-03-27T19:09:41.272Z,16.47
2023-03-27T19:14:43.965Z,16.74
2023-03-27T19:19:46.701Z,16.43
2023-03-27T19:24:48.996Z,16.63
2023-03-27T19:29:51.588Z,16.05
2023-03-27T19:34:53.820Z,15.99
2023-03-27T19:39:56.166Z,16.05
2023-03-27T19:44:58.422Z,16.27
2023-03-27T19:50:00.654Z,15.93
2023-03-27T19:55:02.868Z,15.32
2023-03-27T20:00:10.725Z,15.16
2023-03-27T20:05:13.220Z,15.04
2023-03-27T20:10:16.449Z,14.83
2023-03-27T20:15:18.629Z,14.76
2023-03-27T20:20:20.793Z,14.90
2023-03-27T20:25:23.003Z,14.72
2023-03-27T20:30:25.601Z,14.94
2023-03-27T20:35:27.757Z,15.38
2023-03-27T20:40:34.762Z,15.69
2023-03-27T20:45:44.744Z,15.66
2023-03-27T20:50:55.823Z,15.06
2023-03-27T20:56:03.870Z,14.69
2023-03-27T21:01:09.389Z,14.07
2023-03-27T21:06:15.125Z,13.83
2023-03-27T21:11:17.279Z,12.88
2023-03-27T21:16:19.449Z,13.13
2023-03-27T21:21:21.845Z,13.38
2023-03-27T21:26:24.350Z,13.29
2023-03-27T21:31:26.655Z,13.23
2023-03-27T21:36:29.742Z,13.08
2023-03-27T21:41:32.398Z,12.76
2023-03-27T21:46:34.657Z,13.26
2023-03-27T21:51:36.944Z,13.55
2023-03-27T21:56:39.174Z,13.65
2023-03-27T22:01:41.351Z,13.68
2023-03-27T22:06:44.653Z,14.06
2023-03-27T22:11:47.145Z,13.84
2023-03-27T22:16:49.234Z,14.43
2023-03-27T22:21:51.383Z,14.51
2023-03-27T22:26:53.703Z,14.66
2023-03-27T22:31:55.962Z,14.82
2023-03-27T22:36:58.100Z,15.01
2023-03-27T22:42:00.263Z,15.13
2023-03-27T22:47:02.629Z,14.93
2023-03-27T22:52:05.326Z,15.13
2023-03-27T22:57:07.639Z,15.16
2023-03-27T23:02:09.876Z,15.55
2023-03-27T23:07:12.431Z,15.40
2023-03-27T23:12:14.585Z,15.58
2023-03-27T23:17:16.759Z,15.35
2023-03-27T23:22:19.213Z,15.29
2023-03-27T23:27:21.475Z,15.45
2023-03-27T23:32:23.611Z,15.12
2023-03-27T23:37:29.099Z,14.91
2023-03-27T23:42:32.527Z,15.02
2023-03-27T23:47:34.642Z,15.08
2023-03-27T23:52:37.284Z,15.10
2023-03-27T23:57:39.445Z,15.03
